createdAt,value
2023-02-05T00:01:47.697Z,18.38
2023-02-05T00:04:15.729Z,16.13
2023-02-05T00:06:43.460Z,17.45
2023-02-05T00:09:11.401Z,18.77
2023-02-05T00:11:40.592Z,18.45
2023-02-05T00:14:08.371Z,19.88
2023-02-05T00:16:36.792Z,19.42
2023-02-05T00:19:04.967Z,21.30
2023-02-05T00:21:32.741Z,20.73
2023-02-05T00:24:00.834Z,22.00
2023-02-05T00:26:28.680Z,21.60
2023-02-05T00:28:57.773Z,24.02
2023-02-05T00:31:25.991Z,23.67
2023-02-05T00:33:54.014Z,24.27
2023-02-05T00:36:24.385Z,25.33
2023-02-05T00:38:52.817Z,25.38
2023-02-05T00:41:20.830Z,24.98
2023-02-05T00:43:48.584Z,26.55
2023-02-05T00:46:17.867Z,26.63
2023-02-05T00:48:45.927Z,28.48
2023-02-05T00:51:13.630Z,28.88
2023-02-05T00:53:41.706Z,27.77
2023-02-05T00:56:09.472Z,28.67
2023-02-05T00:58:37.802Z,28.98
2023-02-05T01:01:06.581Z,29.05
2023-02-05T01:03:37.263Z,29.13
2023-02-05T01:06:05.667Z,28.70
2023-02-05T01:08:33.560Z,28.55
2023-02-05T01:11:01.832Z,29.17
2023-02-05T01:13:29.606Z,28.50
2023-02-05T01:15:57.631Z,29.05
2023-02-05T01:18:25.342Z,29.10
2023-02-05T01:20:54.680Z,30.08
2023-02-05T01:23:22.551Z,27.52
2023-02-05T01:25:50.490Z,26.70
2023-02-05T01:28:18.429Z,27.90
2023-02-05T01:30:48.801Z,28.08
2023-02-05T01:33:16.828Z,26.88
2023-02-05T01:35:45.007Z,27.80
2023-02-05T01:38:14.443Z,26.70
2023-02-05T01:40:42.487Z,26.70
2023-02-05T01:43:13.090Z,27.58
2023-02-05T01:46:06.969Z,28.42
2023-02-05T01:48:39.207Z,27.52
2023-02-05T01:51:09.058Z,28.13
2023-02-05T01:53:39.644Z,27.08
2023-02-05T01:56:12.371Z,27.75
2023-02-05T01:58:45.179Z,27.58
2023-02-05T02:01:13.192Z,26.45
2023-02-05T02:03:41.777Z,28.02
2023-02-05T02:06:10.734Z,26.88
2023-02-05T02:08:40.076Z,25.95
2023-02-05T02:11:08.821Z,25.35
2023-02-05T02:13:37.917Z,26.65
2023-02-05T02:16:07.210Z,26.25
2023-02-05T02:18:38.122Z,25.63
2023-02-05T02:21:29.054Z,26.30
2023-02-05T02:24:29.795Z,24.88
2023-02-05T02:27:18.082Z,26.90
2023-02-05T02:29:52.677Z,27.33
2023-02-05T02:32:25.503Z,25.25
2023-02-05T02:34:57.268Z,26.38
2023-02-05T02:37:27.311Z,27.13
2023-02-05T02:39:59.563Z,26.02
2023-02-05T02:42:32.497Z,25.42
2023-02-05T02:45:03.536Z,25.85
2023-02-05T02:47:35.875Z,25.50
2023-02-05T02:50:08.640Z,25.95
2023-02-05T02:52:40.579Z,24.75
2023-02-05T02:55:11.819Z,24.00
2023-02-05T02:57:45.048Z,24.33
2023-02-05T03:00:20.490Z,23.48
2023-02-05T03:02:50.251Z,23.83
2023-02-05T03:05:23.033Z,22.77
2023-02-05T03:07:54.097Z,23.80
2023-02-05T03:10:26.976Z,22.42
2023-02-05T03:12:55.923Z,23.20
2023-02-05T03:15:25.200Z,23.48
2023-02-05T03:17:54.760Z,22.23
2023-02-05T03:20:26.677Z,21.20
2023-02-05T03:22:54.835Z,21.83
2023-02-05T03:25:23.872Z,20.98
2023-02-05T03:27:55.232Z,20.50
2023-02-05T03:30:31.371Z,20.83
2023-02-05T03:33:06.505Z,20.20
2023-02-05T03:35:39.830Z,18.90
2023-02-05T03:38:20.352Z,17.77
2023-02-05T03:40:52.155Z,18.35
2023-02-05T03:43:32.044Z,16.25
2023-02-05T03:46:04.805Z,16.38
2023-02-05T03:48:46.144Z,16.63
2023-02-05T03:51:22.872Z,16.08
2023-02-05T03:54:00.694Z,15.43
2023-02-05T03:56:33.827Z,16.38
2023-02-05T03:59:02.700Z,15.73
2023-02-05T04:01:32.357Z,15.30
2023-02-05T04:04:00.307Z,14.32
2023-02-05T04:06:28.769Z,13.95
2023-02-05T04:08:57.391Z,16.27
2023-02-05T04:11:26.182Z,15.38
2023-02-05T04:13:54.753Z,14.48
2023-02-05T04:16:22.751Z,14.70
2023-02-05T04:18:52.055Z,14.23
2023-02-05T04:21:19.975Z,13.50
2023-02-05T04:23:48.074Z,15.18
2023-02-05T04:26:16.002Z,13.55
2023-02-05T04:28:51.421Z,12.95
2023-02-05T04:31:19.581Z,12.55
2023-02-05T04:33:47.494Z,12.65
2023-02-05T04:36:18.599Z,12.85
2023-02-05T04:38:46.550Z,12.85
2023-02-05T04:41:15.500Z,12.32
2023-02-05T04:43:43.171Z,13.20
2023-02-05T04:46:12.954Z,12.98
2023-02-05T04:48:41.896Z,12.88
2023-02-05T04:51:11.301Z,12.95
2023-02-05T04:53:40.827Z,12.52
2023-02-05T04:56:10.386Z,12.13
2023-02-05T04:58:38.599Z,12.70
2023-02-05T05:01:06.499Z,12.98
2023-02-05T05:03:34.665Z,13.25
2023-02-05T05:06:06.018Z,13.35
2023-02-05T05:08:33.944Z,12.23
2023-02-05T05:11:07.362Z,13.82
2023-02-05T05:13:35.505Z,13.18
2023-02-05T05:16:03.679Z,12.77
2023-02-05T05:18:33.831Z,11.98
2023-02-05T05:21:01.855Z,13.82
2023-02-05T05:23:29.799Z,12.52
2023-02-05T05:25:57.591Z,12.80
2023-02-05T05:28:26.684Z,12.45
2023-02-05T05:30:54.469Z,13.02
2023-02-05T05:33:22.268Z,12.23
2023-02-05T05:35:49.998Z,11.85
2023-02-05T05:38:19.195Z,10.68
2023-02-05T05:41:04.841Z,10.05
2023-02-05T05:43:49.163Z,9.82
2023-02-05T05:46:21.931Z,8.88
2023-02-05T05:48:51.015Z,7.22
2023-02-05T05:51:18.970Z,6.65
2023-02-05T05:53:47.241Z,6.20
2023-02-05T05:56:15.234Z,5.20
2023-02-05T05:58:44.852Z,5.88
2023-02-05T06:01:14.294Z,4.38
2023-02-05T06:03:42.095Z,3.75
2023-02-05T06:06:11.314Z,3.35
2023-02-05T06:08:39.563Z,2.30
2023-02-05T06:11:07.754Z,2.10
2023-02-05T06:13:35.865Z,2.08
2023-02-05T06:16:05.402Z,1.60
2023-02-05T06:18:33.528Z,2.45
2023-02-05T06:21:02.229Z,1.88
2023-02-05T06:23:30.041Z,2.08
2023-02-05T06:25:57.945Z,1.45
2023-02-05T06:28:25.791Z,1.75
2023-02-05T06:30:54.047Z,1.88
2023-02-05T06:33:23.186Z,1.85
2023-02-05T06:35:51.160Z,2.33
2023-02-05T06:38:18.978Z,1.95
2023-02-05T06:40:48.336Z,2.13
2023-02-05T06:43:16.422Z,1.90
2023-02-05T06:45:44.139Z,2.08
2023-02-05T06:48:11.979Z,1.85
2023-02-05T06:50:41.151Z,1.92
2023-02-05T06:53:11.071Z,1.70
2023-02-05T06:55:39.746Z,1.73
2023-02-05T06:58:08.394Z,2.47
2023-02-05T07:00:36.630Z,1.80
2023-02-05T07:03:04.591Z,2.10
2023-02-05T07:05:33.503Z,2.17
2023-02-05T07:08:04.012Z,1.63
2023-02-05T07:10:31.944Z,2.00
2023-02-05T07:13:03.076Z,1.90
2023-02-05T07:15:32.523Z,2.22
2023-02-05T07:18:00.374Z,2.58
2023-02-05T07:20:28.158Z,1.60
2023-02-05T07:22:56.058Z,2.03
2023-02-05T07:25:25.341Z,2.08
2023-02-05T07:27:53.131Z,1.92
2023-02-05T07:30:21.063Z,2.22
2023-02-05T07:32:48.960Z,2.53
2023-02-05T07:35:16.857Z,2.08
2023-02-05T07:37:44.652Z,1.58
2023-02-05T07:40:13.179Z,2.35
2023-02-05T07:42:42.242Z,2.22
2023-02-05T07:45:10.803Z,2.10
2023-02-05T07:47:38.832Z,1.95
2023-02-05T07:50:07.217Z,2.50
2023-02-05T07:52:35.936Z,2.28
2023-02-05T07:55:03.985Z,2.47
2023-02-05T07:57:31.868Z,3.13
2023-02-05T08:00:01.068Z,2.70
2023-02-05T08:02:28.823Z,2.42
2023-02-05T08:04:57.051Z,2.75
2023-02-05T08:07:27.728Z,2.83
2023-02-05T08:09:55.589Z,3.08
2023-02-05T08:12:23.947Z,2.92
2023-02-05T08:14:52.755Z,3.05
2023-02-05T08:17:21.890Z,2.88
2023-02-05T08:19:49.767Z,3.30
2023-02-05T08:22:17.691Z,3.03
2023-02-05T08:24:45.411Z,3.08
2023-02-05T08:27:13.435Z,3.95
2023-02-05T08:29:41.276Z,2.95
2023-02-05T08:32:09.020Z,3.42
2023-02-05T08:34:38.246Z,3.80
2023-02-05T08:37:06.252Z,3.70
2023-02-05T08:39:33.964Z,3.25
2023-02-05T08:42:02.161Z,3.85
2023-02-05T08:44:29.900Z,4.10
2023-02-05T08:46:57.802Z,3.45
2023-02-05T08:49:25.879Z,3.85
2023-02-05T08:51:54.941Z,3.90
2023-02-05T08:54:22.771Z,3.85
2023-02-05T08:56:52.140Z,3.92
2023-02-05T08:59:20.762Z,4.05
2023-02-05T09:01:49.244Z,5.13
2023-02-05T09:04:18.581Z,4.07
2023-02-05T09:06:46.401Z,3.78
2023-02-05T09:09:15.597Z,4.25
2023-02-05T09:11:43.829Z,4.10
2023-02-05T09:14:11.647Z,5.20
2023-02-05T09:16:39.467Z,4.25
2023-02-05T09:19:07.865Z,4.63
2023-02-05T09:21:35.991Z,4.55
2023-02-05T09:24:04.137Z,4.63
2023-02-05T09:26:33.242Z,4.97
2023-02-05T09:29:01.043Z,5.85
2023-02-05T09:31:28.903Z,5.20
2023-02-05T09:33:57.534Z,5.80
2023-02-05T09:36:25.333Z,5.70
2023-02-05T09:39:12.032Z,5.05
2023-02-05T09:41:54.893Z,4.68
2023-02-05T09:44:27.937Z,4.65
2023-02-05T09:47:01.726Z,5.70
2023-02-05T09:49:31.562Z,5.22
2023-02-05T09:52:02.351Z,7.07
2023-02-05T09:54:32.508Z,5.55
2023-02-05T09:57:05.602Z,5.65
2023-02-05T09:59:34.523Z,4.70
2023-02-05T10:02:05.829Z,4.88
2023-02-05T10:04:33.752Z,5.45
2023-02-05T10:07:13.179Z,5.93
2023-02-05T10:10:04.651Z,5.40
2023-02-05T10:12:41.934Z,5.03
2023-02-05T10:15:23.573Z,5.22
2023-02-05T10:17:58.918Z,4.85
2023-02-05T10:20:38.839Z,4.40
2023-02-05T10:23:15.769Z,4.20
2023-02-05T10:25:54.207Z,4.40
2023-02-05T10:28:41.570Z,5.28
2023-02-05T10:31:15.157Z,4.50
2023-02-05T10:33:49.840Z,4.38
2023-02-05T10:36:21.884Z,5.85
2023-02-05T10:38:51.848Z,4.97
2023-02-05T10:41:24.927Z,4.97
2023-02-05T10:44:01.263Z,5.07
2023-02-05T10:46:33.693Z,6.00
2023-02-05T10:49:08.090Z,5.20
2023-02-05T10:51:40.829Z,5.35
2023-02-05T10:54:17.316Z,5.80
2023-02-05T10:56:45.513Z,5.75
2023-02-05T10:59:22.284Z,6.57
2023-02-05T11:01:51.044Z,5.50
2023-02-05T11:04:32.490Z,5.25
2023-02-05T11:07:01.699Z,5.65
2023-02-05T11:09:32.729Z,6.00
2023-02-05T11:12:02.643Z,5.93
2023-02-05T11:14:35.519Z,6.03
2023-02-05T11:17:19.333Z,5.55
2023-02-05T11:19:54.062Z,5.10
2023-02-05T11:22:27.778Z,5.25
2023-02-05T11:25:07.642Z,4.93
2023-02-05T11:27:36.333Z,5.13
2023-02-05T11:30:49.565Z,6.72
2023-02-05T11:33:20.759Z,5.43
2023-02-05T11:35:53.461Z,4.82
2023-02-05T11:38:30.245Z,5.10
2023-02-05T11:41:00.137Z,5.50
2023-02-05T11:43:31.502Z,6.32
2023-02-05T11:46:01.984Z,5.55
2023-02-05T11:48:35.049Z,9.38
2023-02-05T11:51:03.604Z,7.13
2023-02-05T11:53:33.017Z,6.30
2023-02-05T11:56:05.309Z,5.03
2023-02-05T11:58:37.428Z,6.15
2023-02-05T12:01:24.005Z,6.28
2023-02-05T12:04:00.422Z,7.32
2023-02-05T12:06:33.271Z,5.85
2023-02-05T12:09:01.118Z,4.38
2023-02-05T12:11:58.111Z,6.32
2023-02-05T12:14:32.078Z,5.88
2023-02-05T12:17:08.835Z,5.00
2023-02-05T12:19:42.249Z,5.50
2023-02-05T12:22:17.424Z,6.68
2023-02-05T12:24:49.141Z,5.55
2023-02-05T12:27:31.393Z,5.10
2023-02-05T12:30:08.282Z,6.03
2023-02-05T12:32:42.744Z,4.88
2023-02-05T12:35:25.409Z,5.22
2023-02-05T12:37:59.885Z,4.90
2023-02-05T12:40:40.846Z,4.70
2023-02-05T12:43:20.171Z,4.97
2023-02-05T12:45:54.611Z,4.55
2023-02-05T12:48:40.293Z,4.82
2023-02-05T12:51:21.596Z,4.47
2023-02-05T12:54:04.281Z,5.55
2023-02-05T12:56:41.857Z,5.22
2023-02-05T12:59:14.984Z,5.10
2023-02-05T13:01:52.136Z,4.55
2023-02-05T13:04:25.794Z,4.90
2023-02-05T13:06:59.765Z,4.25
2023-02-05T13:09:32.875Z,4.32
2023-02-05T13:12:06.421Z,4.85
2023-02-05T13:14:38.997Z,4.85
2023-02-05T13:17:12.406Z,4.13
2023-02-05T13:19:43.546Z,5.07
2023-02-05T13:22:32.830Z,3.80
2023-02-05T13:25:24.786Z,4.65
2023-02-05T13:28:16.884Z,4.22
2023-02-05T13:30:47.799Z,5.03
2023-02-05T13:33:15.822Z,4.03
2023-02-05T13:35:51.002Z,4.15
2023-02-05T13:38:33.294Z,4.10
2023-02-05T13:41:26.786Z,3.72
2023-02-05T13:44:27.596Z,4.50
2023-02-05T13:47:07.572Z,4.07
2023-02-05T13:49:50.472Z,4.25
2023-02-05T13:52:28.861Z,4.07
2023-02-05T13:55:09.021Z,3.40
2023-02-05T13:58:12.772Z,3.60
2023-02-05T14:00:42.652Z,3.78
2023-02-05T14:03:10.690Z,3.63
2023-02-05T14:05:40.143Z,4.00
2023-02-05T14:08:20.857Z,3.65
2023-02-05T14:10:58.188Z,3.95
2023-02-05T14:13:31.148Z,4.82
2023-02-05T14:16:00.678Z,3.88
2023-02-05T14:18:51.354Z,4.10
2023-02-05T14:21:52.604Z,4.22
2023-02-05T14:24:39.233Z,3.65
2023-02-05T14:27:22.190Z,3.30
2023-02-05T14:29:51.473Z,4.38
2023-02-05T14:32:53.013Z,4.82
2023-02-05T14:35:31.993Z,4.70
2023-02-05T14:38:02.511Z,5.20
2023-02-05T14:40:33.309Z,4.68
2023-02-05T14:43:10.465Z,4.63
2023-02-05T14:45:45.462Z,4.53
2023-02-05T14:48:21.099Z,3.80
2023-02-05T14:51:01.912Z,4.38
2023-02-05T14:53:30.329Z,4.18
2023-02-05T14:56:00.693Z,4.78
2023-02-05T14:58:32.471Z,5.38
2023-02-05T15:01:45.742Z,4.03
2023-02-05T15:04:40.065Z,4.88
2023-02-05T15:07:11.904Z,5.03
2023-02-05T15:09:44.472Z,4.25
2023-02-05T15:12:49.960Z,4.60
2023-02-05T15:15:30.780Z,5.22
2023-02-05T15:18:04.546Z,5.05
2023-02-05T15:20:34.029Z,4.60
2023-02-05T15:23:05.864Z,4.35
2023-02-05T15:25:37.774Z,5.80
2023-02-05T15:28:24.950Z,4.75
2023-02-05T15:30:59.243Z,4.15
2023-02-05T15:33:34.459Z,4.70
2023-02-05T15:36:04.656Z,4.78
2023-02-05T15:38:34.971Z,4.53
2023-02-05T15:41:07.885Z,4.88
2023-02-05T15:43:37.338Z,4.82
2023-02-05T15:46:08.036Z,4.45
2023-02-05T15:48:38.086Z,4.32
2023-02-05T15:51:14.723Z,5.03
2023-02-05T15:53:44.732Z,4.72
2023-02-05T15:56:15.803Z,5.45
2023-02-05T15:58:50.269Z,5.30
2023-02-05T16:01:24.652Z,4.82
2023-02-05T16:03:52.699Z,4.57
2023-02-05T16:06:21.094Z,5.03
2023-02-05T16:08:49.580Z,5.15
2023-02-05T16:11:27.844Z,5.30
2023-02-05T16:14:08.497Z,4.80
2023-02-05T16:16:38.844Z,6.03
2023-02-05T16:19:10.071Z,4.88
2023-02-05T16:21:41.518Z,6.43
2023-02-05T16:24:18.192Z,6.15
2023-02-05T16:26:48.114Z,6.05
2023-02-05T16:29:26.849Z,5.97
2023-02-05T16:32:00.990Z,6.50
2023-02-05T16:34:30.414Z,6.35
2023-02-05T16:37:01.647Z,5.20
2023-02-05T16:39:31.246Z,6.03
2023-02-05T16:42:04.554Z,6.40
2023-02-05T16:44:36.752Z,6.25
2023-02-05T16:47:22.463Z,6.05
2023-02-05T16:49:51.950Z,6.03
2023-02-05T16:52:32.123Z,6.07
2023-02-05T16:55:00.391Z,6.15
2023-02-05T16:57:31.931Z,7.18
2023-02-05T17:00:04.662Z,5.55
2023-02-05T17:02:35.554Z,14.90
2023-02-05T17:05:05.152Z,8.07
2023-02-05T17:07:34.936Z,7.43
2023-02-05T17:10:18.445Z,6.95
2023-02-05T17:12:57.185Z,7.57
2023-02-05T17:15:33.271Z,8.55
2023-02-05T17:18:06.522Z,9.38
2023-02-05T17:20:35.391Z,6.63
2023-02-05T17:23:11.070Z,7.60
2023-02-05T17:25:41.055Z,6.43
2023-02-05T17:28:14.687Z,6.47
2023-02-05T17:30:46.616Z,6.32
2023-02-05T17:33:17.912Z,7.13
2023-02-05T17:35:45.890Z,6.57
2023-02-05T17:38:14.076Z,5.97
2023-02-05T17:40:41.965Z,6.90
2023-02-05T17:43:09.893Z,7.10
2023-02-05T17:45:40.724Z,6.50
2023-02-05T17:48:10.076Z,6.68
2023-02-05T17:50:38.135Z,6.15
2023-02-05T17:53:06.081Z,6.90
2023-02-05T17:55:33.964Z,7.25
2023-02-05T17:58:01.910Z,6.85
2023-02-05T18:00:31.793Z,6.20
2023-02-05T18:02:59.850Z,6.97
2023-02-05T18:05:30.180Z,6.80
2023-02-05T18:07:59.665Z,6.40
2023-02-05T18:10:29.486Z,5.88
2023-02-05T18:12:57.323Z,6.35
2023-02-05T18:15:25.664Z,7.40
2023-02-05T18:17:55.358Z,7.43
2023-02-05T18:20:23.601Z,6.70
2023-02-05T18:22:52.796Z,5.85
2023-02-05T18:25:21.084Z,6.63
2023-02-05T18:27:50.303Z,7.05
2023-02-05T18:30:18.444Z,5.82
2023-02-05T18:32:46.228Z,7.85
2023-02-05T18:35:14.943Z,6.75
2023-02-05T18:37:43.421Z,10.30
2023-02-05T18:40:15.128Z,8.35
2023-02-05T18:42:46.881Z,6.90
2023-02-05T18:45:14.742Z,5.53
2023-02-05T18:47:42.527Z,5.57
2023-02-05T18:50:10.865Z,5.72
2023-02-05T18:52:39.036Z,5.68
2023-02-05T18:55:07.789Z,6.68
2023-02-05T18:57:37.093Z,5.47
2023-02-05T19:00:05.396Z,6.03
2023-02-05T19:02:35.187Z,6.45
2023-02-05T19:05:03.318Z,6.22
2023-02-05T19:07:31.277Z,5.53
2023-02-05T19:09:59.361Z,7.00
2023-02-05T19:12:27.274Z,4.90
2023-02-05T19:14:56.510Z,5.85
2023-02-05T19:17:27.300Z,6.18
2023-02-05T19:19:55.803Z,7.38
2023-02-05T19:22:23.724Z,7.18
2023-02-05T19:24:51.738Z,6.55
2023-02-05T19:27:19.665Z,6.45
2023-02-05T19:29:47.943Z,6.50
2023-02-05T19:32:17.226Z,11.43
2023-02-05T19:34:46.656Z,7.45
2023-02-05T19:37:14.773Z,7.90
2023-02-05T19:39:42.738Z,7.07
2023-02-05T19:42:10.801Z,6.68
2023-02-05T19:44:38.582Z,8.57
2023-02-05T19:47:06.326Z,9.48
2023-02-05T19:49:35.774Z,9.57
2023-02-05T19:52:03.504Z,8.50
2023-02-05T19:54:31.605Z,8.02
2023-02-05T19:56:59.355Z,8.30
2023-02-05T19:59:27.578Z,9.40
2023-02-05T20:01:55.701Z,7.82
2023-02-05T20:04:26.082Z,8.15
2023-02-05T20:06:57.546Z,7.63
2023-02-05T20:09:26.504Z,7.28
2023-02-05T20:11:55.583Z,7.65
2023-02-05T20:14:23.978Z,7.18
2023-02-05T20:16:52.634Z,6.82
2023-02-05T20:19:23.532Z,7.32
2023-02-05T20:21:52.435Z,6.60
2023-02-05T20:24:22.973Z,7.40
2023-02-05T20:26:52.941Z,6.95
2023-02-05T20:29:39.039Z,7.35
2023-02-05T20:32:08.123Z,7.13
2023-02-05T20:34:38.204Z,7.30
2023-02-05T20:37:09.181Z,7.13
2023-02-05T20:39:42.106Z,6.28
2023-02-05T20:42:13.620Z,8.02
2023-02-05T20:44:42.983Z,6.30
2023-02-05T20:47:14.378Z,6.85
2023-02-05T20:49:43.384Z,8.18
2023-02-05T20:52:11.674Z,9.27
2023-02-05T20:54:41.399Z,8.68
2023-02-05T20:57:09.924Z,6.82
2023-02-05T20:59:38.951Z,6.30
2023-02-05T21:02:07.069Z,7.30
2023-02-05T21:04:35.370Z,9.63
2023-02-05T21:07:03.371Z,8.88
2023-02-05T21:09:31.490Z,10.07
2023-02-05T21:12:00.863Z,9.77
2023-02-05T21:14:28.861Z,10.07
2023-02-05T21:16:57.260Z,8.63
2023-02-05T21:19:25.129Z,7.45
2023-02-05T21:21:53.090Z,7.88
2023-02-05T21:24:21.480Z,6.93
2023-02-05T21:26:50.880Z,7.43
2023-02-05T21:29:22.313Z,8.15
2023-02-05T21:31:53.124Z,8.00
2023-02-05T21:34:23.194Z,8.50
2023-02-05T21:36:52.055Z,8.20
2023-02-05T21:39:20.454Z,8.77
2023-02-05T21:41:50.676Z,7.90
2023-02-05T21:44:20.999Z,8.23
2023-02-05T21:46:48.955Z,8.32
2023-02-05T21:49:18.415Z,7.80
2023-02-05T21:51:48.171Z,8.05
2023-02-05T21:54:16.359Z,8.00
2023-02-05T21:56:45.129Z,9.00
2023-02-05T21:59:15.640Z,9.80
2023-02-05T22:01:45.356Z,10.00
2023-02-05T22:04:15.438Z,14.25
2023-02-05T22:06:46.889Z,12.70
2023-02-05T22:09:17.060Z,9.43
2023-02-05T22:11:45.587Z,9.18
2023-02-05T22:14:13.817Z,9.80
2023-02-05T22:16:42.187Z,9.63
2023-02-05T22:19:11.712Z,9.65
2023-02-05T22:21:41.647Z,8.73
2023-02-05T22:24:12.491Z,9.30
2023-02-05T22:26:41.604Z,9.43
2023-02-05T22:29:12.696Z,11.25
2023-02-05T22:31:41.110Z,10.30
2023-02-05T22:34:11.647Z,25.35
2023-02-05T22:36:39.685Z,13.60
2023-02-05T22:39:08.634Z,11.32
2023-02-05T22:41:38.294Z,11.23
2023-02-05T22:44:07.888Z,10.07
2023-02-05T22:46:38.827Z,9.77
2023-02-05T22:49:07.740Z,9.00
2023-02-05T22:51:39.203Z,9.35
2023-02-05T22:54:13.195Z,10.02
2023-02-05T22:56:41.606Z,10.18
2023-02-05T22:59:09.859Z,9.07
2023-02-05T23:01:39.527Z,8.85
2023-02-05T23:04:08.956Z,8.68
2023-02-05T23:06:40.688Z,9.50
2023-02-05T23:09:13.462Z,8.95
2023-02-05T23:11:44.229Z,8.45
2023-02-05T23:14:13.500Z,8.65
2023-02-05T23:16:43.199Z,7.18
2023-02-05T23:19:14.044Z,7.60
2023-02-05T23:21:43.677Z,8.45
2023-02-05T23:24:12.999Z,8.60
2023-02-05T23:26:43.894Z,9.00
2023-02-05T23:29:13.019Z,7.85
2023-02-05T23:31:40.949Z,9.18
2023-02-05T23:34:09.090Z,8.73
2023-02-05T23:36:37.162Z,8.35
2023-02-05T23:39:06.576Z,8.80
2023-02-05T23:41:37.668Z,8.85
2023-02-05T23:44:07.346Z,9.50
2023-02-05T23:46:36.062Z,8.15
2023-02-05T23:49:05.012Z,8.30
2023-02-05T23:51:35.011Z,9.05
2023-02-05T23:54:03.420Z,8.23
2023-02-05T23:56:32.904Z,8.90
2023-02-05T23:59:00.878Z,8.60
